sensor_id;sensor_type;location;lat;lon;timestamp;temperature;humidity
78490;DHT22;67776;52.012;4.736;2024-01-30T00:02:15;6.94;98.92
78490;DHT22;67776;52.012;4.736;2024-01-30T00:04:40;6.91;98.80
78490;DHT22;67776;52.012;4.736;2024-01-30T00:07:06;6.92;98.81
78490;DHT22;67776;52.012;4.736;2024-01-30T00:09:31;6.97;98.79
78490;DHT22;67776;52.012;4.736;2024-01-30T00:11:56;7.01;98.81
78490;DHT22;67776;52.012;4.736;2024-01-30T00:14:22;6.95;98.68
78490;DHT22;67776;52.012;4.736;2024-01-30T00:16:48;6.94;98.69
78490;DHT22;67776;52.012;4.736;2024-01-30T00:19:14;6.97;98.73
78490;DHT22;67776;52.012;4.736;2024-01-30T00:21:39;6.97;98.58
78490;DHT22;67776;52.012;4.736;2024-01-30T00:24:04;6.92;98.66
78490;DHT22;67776;52.012;4.736;2024-01-30T00:26:30;7.02;98.67
78490;DHT22;67776;52.012;4.736;2024-01-30T00:28:55;7.00;98.61
78490;DHT22;67776;52.012;4.736;2024-01-30T00:31:20;7.00;98.59
78490;DHT22;67776;52.012;4.736;2024-01-30T00:33:46;7.02;98.59
78490;DHT22;67776;52.012;4.736;2024-01-30T00:36:11;6.98;98.51
78490;DHT22;67776;52.012;4.736;2024-01-30T00:38:37;7.00;98.59
78490;DHT22;67776;52.012;4.736;2024-01-30T00:41:02;7.01;98.55
78490;DHT22;67776;52.012;4.736;2024-01-30T00:43:28;7.02;98.62
78490;DHT22;67776;52.012;4.736;2024-01-30T00:45:53;7.14;98.49
78490;DHT22;67776;52.012;4.736;2024-01-30T00:48:19;7.16;98.44
78490;DHT22;67776;52.012;4.736;2024-01-30T00:50:44;7.16;98.38
78490;DHT22;67776;52.012;4.736;2024-01-30T00:53:10;7.14;98.41
78490;DHT22;67776;52.012;4.736;2024-01-30T00:55:35;7.18;98.26
78490;DHT22;67776;52.012;4.736;2024-01-30T00:58:01;7.18;98.30
78490;DHT22;67776;52.012;4.736;2024-01-30T01:00:26;7.19;98.21
78490;DHT22;67776;52.012;4.736;2024-01-30T01:02:55;7.07;98.10
78490;DHT22;67776;52.012;4.736;2024-01-30T01:05:20;6.91;98.20
78490;DHT22;67776;52.012;4.736;2024-01-30T01:07:46;6.83;98.12
78490;DHT22;67776;52.012;4.736;2024-01-30T01:10:12;6.80;98.29
78490;DHT22;67776;52.012;4.736;2024-01-30T01:12:39;6.81;98.60
78490;DHT22;67776;52.012;4.736;2024-01-30T01:15:05;6.76;98.60
78490;DHT22;67776;52.012;4.736;2024-01-30T01:17:30;6.80;98.63
78490;DHT22;67776;52.012;4.736;2024-01-30T01:19:57;6.83;98.73
78490;DHT22;67776;52.012;4.736;2024-01-30T01:22:22;6.88;98.62
78490;DHT22;67776;52.012;4.736;2024-01-30T01:24:48;6.91;98.56
78490;DHT22;67776;52.012;4.736;2024-01-30T01:27:13;6.91;98.55
78490;DHT22;67776;52.012;4.736;2024-01-30T01:29:38;6.90;98.40
78490;DHT22;67776;52.012;4.736;2024-01-30T01:32:04;6.84;98.42
78490;DHT22;67776;52.012;4.736;2024-01-30T01:34:29;6.81;98.46
78490;DHT22;67776;52.012;4.736;2024-01-30T01:36:55;6.66;98.00
78490;DHT22;67776;52.012;4.736;2024-01-30T01:39:21;6.63;98.65
78490;DHT22;67776;52.012;4.736;2024-01-30T01:41:48;6.69;98.72
78490;DHT22;67776;52.012;4.736;2024-01-30T01:44:13;6.72;98.84
78490;DHT22;67776;52.012;4.736;2024-01-30T01:46:38;6.76;98.84
78490;DHT22;67776;52.012;4.736;2024-01-30T01:49:05;6.74;98.76
78490;DHT22;67776;52.012;4.736;2024-01-30T01:51:31;6.72;98.67
78490;DHT22;67776;52.012;4.736;2024-01-30T01:54:00;6.79;98.79
78490;DHT22;67776;52.012;4.736;2024-01-30T01:56:27;6.83;98.88
78490;DHT22;67776;52.012;4.736;2024-01-30T01:58:55;6.85;98.81
78490;DHT22;67776;52.012;4.736;2024-01-30T02:01:21;6.74;98.56
78490;DHT22;67776;52.012;4.736;2024-01-30T02:03:47;6.69;98.56
78490;DHT22;67776;52.012;4.736;2024-01-30T02:06:13;6.87;99.04
78490;DHT22;67776;52.012;4.736;2024-01-30T02:08:40;7.00;98.78
78490;DHT22;67776;52.012;4.736;2024-01-30T02:11:05;7.01;98.77
78490;DHT22;67776;52.012;4.736;2024-01-30T02:13:31;7.02;98.62
78490;DHT22;67776;52.012;4.736;2024-01-30T02:15:59;7.04;98.56
78490;DHT22;67776;52.012;4.736;2024-01-30T02:18:24;7.04;98.58
78490;DHT22;67776;52.012;4.736;2024-01-30T02:20:53;7.09;98.65
78490;DHT22;67776;52.012;4.736;2024-01-30T02:23:19;7.16;98.51
78490;DHT22;67776;52.012;4.736;2024-01-30T02:25:45;7.15;98.48
78490;DHT22;67776;52.012;4.736;2024-01-30T02:28:11;7.20;98.39
78490;DHT22;67776;52.012;4.736;2024-01-30T02:30:38;7.26;98.32
78490;DHT22;67776;52.012;4.736;2024-01-30T02:33:03;7.28;98.28
78490;DHT22;67776;52.012;4.736;2024-01-30T02:35:29;7.26;98.14
78490;DHT22;67776;52.012;4.736;2024-01-30T02:37:54;7.19;98.08
78490;DHT22;67776;52.012;4.736;2024-01-30T02:40:19;7.20;98.16
78490;DHT22;67776;52.012;4.736;2024-01-30T02:42:45;7.08;98.17
78490;DHT22;67776;52.012;4.736;2024-01-30T02:45:10;7.04;98.32
78490;DHT22;67776;52.012;4.736;2024-01-30T02:47:36;7.08;98.46
78490;DHT22;67776;52.012;4.736;2024-01-30T02:50:01;7.16;98.43
78490;DHT22;67776;52.012;4.736;2024-01-30T02:52:27;7.18;98.37
78490;DHT22;67776;52.012;4.736;2024-01-30T02:54:52;7.18;98.28
78490;DHT22;67776;52.012;4.736;2024-01-30T02:57:17;7.19;98.32
78490;DHT22;67776;52.012;4.736;2024-01-30T02:59:43;7.20;98.35
78490;DHT22;67776;52.012;4.736;2024-01-30T03:02:08;7.20;98.30
78490;DHT22;67776;52.012;4.736;2024-01-30T03:04:33;7.23;98.29
78490;DHT22;67776;52.012;4.736;2024-01-30T03:06:59;7.23;98.35
78490;DHT22;67776;52.012;4.736;2024-01-30T03:09:24;7.23;98.31
78490;DHT22;67776;52.012;4.736;2024-01-30T03:11:50;7.26;98.26
78490;DHT22;67776;52.012;4.736;2024-01-30T03:14:15;7.30;98.28
78490;DHT22;67776;52.012;4.736;2024-01-30T03:16:40;7.30;98.24
78490;DHT22;67776;52.012;4.736;2024-01-30T03:19:06;7.36;98.14
78490;DHT22;67776;52.012;4.736;2024-01-30T03:21:35;7.39;98.16
78490;DHT22;67776;52.012;4.736;2024-01-30T03:24:00;7.46;97.97
78490;DHT22;67776;52.012;4.736;2024-01-30T03:26:25;7.40;97.95
78490;DHT22;67776;52.012;4.736;2024-01-30T03:28:51;7.42;97.92
78490;DHT22;67776;52.012;4.736;2024-01-30T03:31:16;7.43;97.95
78490;DHT22;67776;52.012;4.736;2024-01-30T03:33:42;7.46;97.97
78490;DHT22;67776;52.012;4.736;2024-01-30T03:36:08;7.43;97.98
78490;DHT22;67776;52.012;4.736;2024-01-30T03:38:34;7.50;98.02
78490;DHT22;67776;52.012;4.736;2024-01-30T03:41:00;7.52;97.89
78490;DHT22;67776;52.012;4.736;2024-01-30T03:43:25;7.55;97.79
78490;DHT22;67776;52.012;4.736;2024-01-30T03:45:51;7.53;97.70
78490;DHT22;67776;52.012;4.736;2024-01-30T03:48:16;7.52;97.84
78490;DHT22;67776;52.012;4.736;2024-01-30T03:50:41;7.52;97.88
78490;DHT22;67776;52.012;4.736;2024-01-30T03:53:07;7.50;97.84
78490;DHT22;67776;52.012;4.736;2024-01-30T03:55:32;7.52;97.91
78490;DHT22;67776;52.012;4.736;2024-01-30T03:57:57;7.49;97.97
78490;DHT22;67776;52.012;4.736;2024-01-30T04:00:23;7.49;98.02
78490;DHT22;67776;52.012;4.736;2024-01-30T04:02:48;7.47;98.06
78490;DHT22;67776;52.012;4.736;2024-01-30T04:05:14;7.52;98.03
78490;DHT22;67776;52.012;4.736;2024-01-30T04:07:39;7.52;98.02
78490;DHT22;67776;52.012;4.736;2024-01-30T04:10:05;7.49;98.05
78490;DHT22;67776;52.012;4.736;2024-01-30T04:12:31;7.50;98.03
78490;DHT22;67776;52.012;4.736;2024-01-30T04:14:56;7.50;98.10
78490;DHT22;67776;52.012;4.736;2024-01-30T04:17:22;7.50;98.10
78490;DHT22;67776;52.012;4.736;2024-01-30T04:19:47;7.56;98.11
78490;DHT22;67776;52.012;4.736;2024-01-30T04:22:12;7.56;98.00
78490;DHT22;67776;52.012;4.736;2024-01-30T04:24:38;7.53;98.04
78490;DHT22;67776;52.012;4.736;2024-01-30T04:27:04;7.55;98.10
78490;DHT22;67776;52.012;4.736;2024-01-30T04:29:29;7.50;98.12
78490;DHT22;67776;52.012;4.736;2024-01-30T04:31:54;7.50;98.17
78490;DHT22;67776;52.012;4.736;2024-01-30T04:34:19;7.50;98.22
78490;DHT22;67776;52.012;4.736;2024-01-30T04:36:45;7.50;98.16
78490;DHT22;67776;52.012;4.736;2024-01-30T04:39:11;7.52;98.20
78490;DHT22;67776;52.012;4.736;2024-01-30T04:41:37;7.50;98.22
78490;DHT22;67776;52.012;4.736;2024-01-30T04:44:03;7.53;98.21
78490;DHT22;67776;52.012;4.736;2024-01-30T04:46:28;7.57;98.17
78490;DHT22;67776;52.012;4.736;2024-01-30T04:48:53;7.56;98.17
78490;DHT22;67776;52.012;4.736;2024-01-30T04:51:19;7.55;98.21
78490;DHT22;67776;52.012;4.736;2024-01-30T04:53:44;7.56;98.30
78490;DHT22;67776;52.012;4.736;2024-01-30T04:56:09;7.59;98.18
78490;DHT22;67776;52.012;4.736;2024-01-30T04:58:35;7.56;98.17
78490;DHT22;67776;52.012;4.736;2024-01-30T05:01:02;7.57;98.23
78490;DHT22;67776;52.012;4.736;2024-01-30T05:03:27;7.62;98.15
78490;DHT22;67776;52.012;4.736;2024-01-30T05:05:52;7.66;98.11
78490;DHT22;67776;52.012;4.736;2024-01-30T05:08:18;7.64;98.14
78490;DHT22;67776;52.012;4.736;2024-01-30T05:10:43;7.66;98.13
78490;DHT22;67776;52.012;4.736;2024-01-30T05:13:08;7.67;98.10
78490;DHT22;67776;52.012;4.736;2024-01-30T05:15:34;7.69;98.13
78490;DHT22;67776;52.012;4.736;2024-01-30T05:17:59;7.71;98.17
78490;DHT22;67776;52.012;4.736;2024-01-30T05:20:24;7.70;98.12
78490;DHT22;67776;52.012;4.736;2024-01-30T05:22:53;7.70;98.14
78490;DHT22;67776;52.012;4.736;2024-01-30T05:25:18;7.69;98.18
78490;DHT22;67776;52.012;4.736;2024-01-30T05:27:44;7.70;98.13
78490;DHT22;67776;52.012;4.736;2024-01-30T05:30:10;7.74;98.19
78490;DHT22;67776;52.012;4.736;2024-01-30T05:32:35;7.80;98.14
78490;DHT22;67776;52.012;4.736;2024-01-30T05:35:01;7.80;98.05
78490;DHT22;67776;52.012;4.736;2024-01-30T05:37:26;7.81;98.04
78490;DHT22;67776;52.012;4.736;2024-01-30T05:39:51;7.84;97.97
78490;DHT22;67776;52.012;4.736;2024-01-30T05:42:17;7.77;98.04
78490;DHT22;67776;52.012;4.736;2024-01-30T05:44:42;7.78;98.12
78490;DHT22;67776;52.012;4.736;2024-01-30T05:47:08;7.75;98.15
78490;DHT22;67776;52.012;4.736;2024-01-30T05:49:33;7.74;98.17
78490;DHT22;67776;52.012;4.736;2024-01-30T05:51:59;7.74;98.25
78490;DHT22;67776;52.012;4.736;2024-01-30T05:54:25;7.75;98.30
78490;DHT22;67776;52.012;4.736;2024-01-30T05:56:50;7.75;98.30
78490;DHT22;67776;52.012;4.736;2024-01-30T05:59:15;7.75;98.28
78490;DHT22;67776;52.012;4.736;2024-01-30T06:01:48;7.77;98.31
78490;DHT22;67776;52.012;4.736;2024-01-30T06:04:13;7.78;98.31
78490;DHT22;67776;52.012;4.736;2024-01-30T06:06:39;7.80;98.31
78490;DHT22;67776;52.012;4.736;2024-01-30T06:09:05;7.78;98.31
78490;DHT22;67776;52.012;4.736;2024-01-30T06:11:31;7.78;98.31
78490;DHT22;67776;52.012;4.736;2024-01-30T06:13:58;7.78;98.36
78490;DHT22;67776;52.012;4.736;2024-01-30T06:16:24;7.81;98.33
78490;DHT22;67776;52.012;4.736;2024-01-30T06:18:49;7.84;98.34
78490;DHT22;67776;52.012;4.736;2024-01-30T06:21:14;7.85;98.33
78490;DHT22;67776;52.012;4.736;2024-01-30T06:23:40;7.88;98.29
78490;DHT22;67776;52.012;4.736;2024-01-30T06:26:06;7.90;98.25
78490;DHT22;67776;52.012;4.736;2024-01-30T06:28:32;7.94;98.28
78490;DHT22;67776;52.012;4.736;2024-01-30T06:30:57;7.98;98.33
78490;DHT22;67776;52.012;4.736;2024-01-30T06:33:22;7.97;98.11
78490;DHT22;67776;52.012;4.736;2024-01-30T06:35:48;7.98;98.13
78490;DHT22;67776;52.012;4.736;2024-01-30T06:38:13;7.97;98.21
78490;DHT22;67776;52.012;4.736;2024-01-30T06:40:40;7.95;98.22
78490;DHT22;67776;52.012;4.736;2024-01-30T06:43:06;7.97;98.29
78490;DHT22;67776;52.012;4.736;2024-01-30T06:45:33;7.98;98.23
78490;DHT22;67776;52.012;4.736;2024-01-30T06:47:59;8.04;98.29
78490;DHT22;67776;52.012;4.736;2024-01-30T06:50:25;8.09;98.25
78490;DHT22;67776;52.012;4.736;2024-01-30T06:52:50;8.04;98.14
78490;DHT22;67776;52.012;4.736;2024-01-30T06:55:16;8.05;98.24
78490;DHT22;67776;52.012;4.736;2024-01-30T06:57:41;8.05;98.20
78490;DHT22;67776;52.012;4.736;2024-01-30T07:00:07;8.06;98.17
78490;DHT22;67776;52.012;4.736;2024-01-30T07:02:33;8.08;98.29
78490;DHT22;67776;52.012;4.736;2024-01-30T07:04:58;8.18;98.25
78490;DHT22;67776;52.012;4.736;2024-01-30T07:07:24;8.19;98.11
78490;DHT22;67776;52.012;4.736;2024-01-30T07:09:49;8.15;98.28
78490;DHT22;67776;52.012;4.736;2024-01-30T07:12:17;8.13;98.26
78490;DHT22;67776;52.012;4.736;2024-01-30T07:14:43;8.18;98.26
78490;DHT22;67776;52.012;4.736;2024-01-30T07:17:08;8.21;98.32
78490;DHT22;67776;52.012;4.736;2024-01-30T07:19:33;8.25;98.34
78490;DHT22;67776;52.012;4.736;2024-01-30T07:22:00;8.30;98.26
78490;DHT22;67776;52.012;4.736;2024-01-30T07:24:25;8.30;98.19
78490;DHT22;67776;52.012;4.736;2024-01-30T07:26:51;8.36;98.11
78490;DHT22;67776;52.012;4.736;2024-01-30T07:29:16;8.40;98.04
78490;DHT22;67776;52.012;4.736;2024-01-30T07:31:41;8.38;98.09
78490;DHT22;67776;52.012;4.736;2024-01-30T07:34:07;8.40;98.13
78490;DHT22;67776;52.012;4.736;2024-01-30T07:36:32;8.46;98.19
78490;DHT22;67776;52.012;4.736;2024-01-30T07:38:57;8.52;98.29
78490;DHT22;67776;52.012;4.736;2024-01-30T07:41:23;8.70;97.96
78490;DHT22;67776;52.012;4.736;2024-01-30T07:43:50;8.81;97.88
78490;DHT22;67776;52.012;4.736;2024-01-30T07:46:15;8.95;97.63
78490;DHT22;67776;52.012;4.736;2024-01-30T07:48:41;9.00;97.33
78490;DHT22;67776;52.012;4.736;2024-01-30T07:51:06;9.16;97.29
78490;DHT22;67776;52.012;4.736;2024-01-30T07:53:32;9.21;97.30
78490;DHT22;67776;52.012;4.736;2024-01-30T07:55:57;9.28;97.09
78490;DHT22;67776;52.012;4.736;2024-01-30T07:58:22;9.33;96.80
78490;DHT22;67776;52.012;4.736;2024-01-30T08:00:49;9.29;96.91
78490;DHT22;67776;52.012;4.736;2024-01-30T08:03:14;9.36;96.88
78490;DHT22;67776;52.012;4.736;2024-01-30T08:05:41;9.38;96.94
78490;DHT22;67776;52.012;4.736;2024-01-30T08:08:07;9.42;96.77
78490;DHT22;67776;52.012;4.736;2024-01-30T08:10:32;9.47;96.64
78490;DHT22;67776;52.012;4.736;2024-01-30T08:12:57;9.53;96.53
78490;DHT22;67776;52.012;4.736;2024-01-30T08:15:23;9.51;96.46
78490;DHT22;67776;52.012;4.736;2024-01-30T08:17:48;9.51;96.62
78490;DHT22;67776;52.012;4.736;2024-01-30T08:20:14;9.51;96.64
78490;DHT22;67776;52.012;4.736;2024-01-30T08:22:39;9.47;96.88
78490;DHT22;67776;52.012;4.736;2024-01-30T08:25:08;9.56;96.85
78490;DHT22;67776;52.012;4.736;2024-01-30T08:27:35;9.60;96.65
78490;DHT22;67776;52.012;4.736;2024-01-30T08:30:06;9.60;96.74
78490;DHT22;67776;52.012;4.736;2024-01-30T08:32:32;9.61;96.73
78490;DHT22;67776;52.012;4.736;2024-01-30T08:34:57;9.66;96.67
78490;DHT22;67776;52.012;4.736;2024-01-30T08:37:23;9.73;96.57
78490;DHT22;67776;52.012;4.736;2024-01-30T08:39:48;9.73;96.50
78490;DHT22;67776;52.012;4.736;2024-01-30T08:42:14;9.83;96.08
78490;DHT22;67776;52.012;4.736;2024-01-30T08:44:39;9.81;96.10
78490;DHT22;67776;52.012;4.736;2024-01-30T08:47:05;9.83;96.06
78490;DHT22;67776;52.012;4.736;2024-01-30T08:49:31;9.84;96.14
78490;DHT22;67776;52.012;4.736;2024-01-30T08:51:59;9.84;96.08
78490;DHT22;67776;52.012;4.736;2024-01-30T08:54:24;9.93;95.75
78490;DHT22;67776;52.012;4.736;2024-01-30T08:56:50;9.94;95.67
78490;DHT22;67776;52.012;4.736;2024-01-30T08:59:17;9.90;95.90
78490;DHT22;67776;52.012;4.736;2024-01-30T09:01:42;10.02;95.46
78490;DHT22;67776;52.012;4.736;2024-01-30T09:04:08;10.02;95.29
78490;DHT22;67776;52.012;4.736;2024-01-30T09:06:33;10.13;94.88
78490;DHT22;67776;52.012;4.736;2024-01-30T09:08:58;10.31;94.35
78490;DHT22;67776;52.012;4.736;2024-01-30T09:11:24;10.26;94.42
78490;DHT22;67776;52.012;4.736;2024-01-30T09:13:49;10.35;94.23
78490;DHT22;67776;52.012;4.736;2024-01-30T09:16:14;10.32;94.30
78490;DHT22;67776;52.012;4.736;2024-01-30T09:18:41;10.43;93.86
78490;DHT22;67776;52.012;4.736;2024-01-30T09:21:06;10.53;93.74
78490;DHT22;67776;52.012;4.736;2024-01-30T09:23:32;10.61;93.30
78490;DHT22;67776;52.012;4.736;2024-01-30T09:25:58;10.77;92.42
78490;DHT22;67776;52.012;4.736;2024-01-30T09:28:23;10.70;92.48
78490;DHT22;67776;52.012;4.736;2024-01-30T09:30:49;10.67;92.81
78490;DHT22;67776;52.012;4.736;2024-01-30T09:33:14;10.74;92.46
78490;DHT22;67776;52.012;4.736;2024-01-30T09:35:40;10.81;92.14
78490;DHT22;67776;52.012;4.736;2024-01-30T09:38:05;10.78;92.40
78490;DHT22;67776;52.012;4.736;2024-01-30T09:40:30;10.83;92.09
78490;DHT22;67776;52.012;4.736;2024-01-30T09:42:58;10.80;92.17
78490;DHT22;67776;52.012;4.736;2024-01-30T09:45:25;10.85;92.06
78490;DHT22;67776;52.012;4.736;2024-01-30T09:47:51;10.80;92.18
78490;DHT22;67776;52.012;4.736;2024-01-30T09:50:19;10.67;92.57
78490;DHT22;67776;52.012;4.736;2024-01-30T09:52:45;10.61;93.15
78490;DHT22;67776;52.012;4.736;2024-01-30T09:55:11;10.66;92.79
78490;DHT22;67776;52.012;4.736;2024-01-30T09:57:36;10.70;92.48
78490;DHT22;67776;52.012;4.736;2024-01-30T10:00:03;10.66;92.69
78490;DHT22;67776;52.012;4.736;2024-01-30T10:02:31;10.81;90.75
78490;DHT22;67776;52.012;4.736;2024-01-30T10:04:56;10.77;91.68
78490;DHT22;67776;52.012;4.736;2024-01-30T10:07:22;10.74;90.17
78490;DHT22;67776;52.012;4.736;2024-01-30T10:09:48;10.78;89.48
78490;DHT22;67776;52.012;4.736;2024-01-30T10:12:14;10.84;88.24
78490;DHT22;67776;52.012;4.736;2024-01-30T10:14:40;10.93;87.58
78490;DHT22;67776;52.012;4.736;2024-01-30T10:17:08;10.87;87.91
78490;DHT22;67776;52.012;4.736;2024-01-30T10:19:36;10.81;86.94
78490;DHT22;67776;52.012;4.736;2024-01-30T10:22:02;10.80;88.35
78490;DHT22;67776;52.012;4.736;2024-01-30T10:24:27;10.81;87.48
78490;DHT22;67776;52.012;4.736;2024-01-30T10:26:55;10.78;87.78
78490;DHT22;67776;52.012;4.736;2024-01-30T10:29:20;10.63;88.88
78490;DHT22;67776;52.012;4.736;2024-01-30T10:31:46;10.57;88.63
78490;DHT22;67776;52.012;4.736;2024-01-30T10:34:12;10.52;89.18
78490;DHT22;67776;52.012;4.736;2024-01-30T10:36:41;10.45;89.54
78490;DHT22;67776;52.012;4.736;2024-01-30T10:39:08;10.33;89.45
78490;DHT22;67776;52.012;4.736;2024-01-30T10:41:43;10.36;87.91
78490;DHT22;67776;52.012;4.736;2024-01-30T10:44:10;10.28;88.56
78490;DHT22;67776;52.012;4.736;2024-01-30T10:46:37;10.26;87.40
78490;DHT22;67776;52.012;4.736;2024-01-30T10:49:04;10.16;87.75
78490;DHT22;67776;52.012;4.736;2024-01-30T10:51:31;10.18;87.30
78490;DHT22;67776;52.012;4.736;2024-01-30T10:53:56;10.13;87.60
78490;DHT22;67776;52.012;4.736;2024-01-30T10:56:23;10.02;87.52
78490;DHT22;67776;52.012;4.736;2024-01-30T10:58:50;9.99;87.81
78490;DHT22;67776;52.012;4.736;2024-01-30T11:01:21;10.04;86.71
78490;DHT22;67776;52.012;4.736;2024-01-30T11:03:51;9.99;87.17
78490;DHT22;67776;52.012;4.736;2024-01-30T11:06:17;9.94;87.01
78490;DHT22;67776;52.012;4.736;2024-01-30T11:08:45;9.93;87.25
78490;DHT22;67776;52.012;4.736;2024-01-30T11:11:11;9.76;87.80
78490;DHT22;67776;52.012;4.736;2024-01-30T11:13:36;9.81;87.65
78490;DHT22;67776;52.012;4.736;2024-01-30T11:16:05;9.70;88.38
78490;DHT22;67776;52.012;4.736;2024-01-30T11:18:32;9.74;88.47
78490;DHT22;67776;52.012;4.736;2024-01-30T11:21:01;9.66;89.23
78490;DHT22;67776;52.012;4.736;2024-01-30T11:23:30;9.57;89.98
78490;DHT22;67776;52.012;4.736;2024-01-30T11:25:56;9.36;90.56
78490;DHT22;67776;52.012;4.736;2024-01-30T11:28:22;9.38;90.91
78490;DHT22;67776;52.012;4.736;2024-01-30T11:30:48;9.30;90.82
78490;DHT22;67776;52.012;4.736;2024-01-30T11:33:27;9.28;90.74
78490;DHT22;67776;52.012;4.736;2024-01-30T11:35:53;9.28;90.15
78490;DHT22;67776;52.012;4.736;2024-01-30T11:38:18;9.28;89.91
78490;DHT22;67776;52.012;4.736;2024-01-30T11:40:44;9.21;90.65
78490;DHT22;67776;52.012;4.736;2024-01-30T11:43:09;9.29;89.17
78490;DHT22;67776;52.012;4.736;2024-01-30T11:45:35;9.22;88.97
78490;DHT22;67776;52.012;4.736;2024-01-30T11:48:01;9.11;88.87
78490;DHT22;67776;52.012;4.736;2024-01-30T11:50:29;9.08;89.31
78490;DHT22;67776;52.012;4.736;2024-01-30T11:52:55;9.07;88.43
78490;DHT22;67776;52.012;4.736;2024-01-30T11:55:20;9.11;88.74
78490;DHT22;67776;52.012;4.736;2024-01-30T11:57:45;9.15;88.32
78490;DHT22;67776;52.012;4.736;2024-01-30T12:00:17;9.18;87.97
78490;DHT22;67776;52.012;4.736;2024-01-30T12:02:54;9.16;88.38
78490;DHT22;67776;52.012;4.736;2024-01-30T12:05:23;9.04;88.63
78490;DHT22;67776;52.012;4.736;2024-01-30T12:07:49;9.02;89.20
78490;DHT22;67776;52.012;4.736;2024-01-30T12:10:14;9.15;88.59
78490;DHT22;67776;52.012;4.736;2024-01-30T12:12:41;9.15;89.53
78490;DHT22;67776;52.012;4.736;2024-01-30T12:15:08;9.19;88.46
78490;DHT22;67776;52.012;4.736;2024-01-30T12:17:34;9.16;88.91
78490;DHT22;67776;52.012;4.736;2024-01-30T12:20:06;9.14;89.33
78490;DHT22;67776;52.012;4.736;2024-01-30T12:22:36;9.12;89.81
78490;DHT22;67776;52.012;4.736;2024-01-30T12:25:02;9.15;89.69
78490;DHT22;67776;52.012;4.736;2024-01-30T12:27:27;9.19;89.52
78490;DHT22;67776;52.012;4.736;2024-01-30T12:29:57;9.19;90.32
78490;DHT22;67776;52.012;4.736;2024-01-30T12:32:23;8.94;91.02
78490;DHT22;67776;52.012;4.736;2024-01-30T12:34:49;8.91;91.61
78490;DHT22;67776;52.012;4.736;2024-01-30T12:37:14;8.98;91.29
78490;DHT22;67776;52.012;4.736;2024-01-30T12:39:45;8.95;91.61
78490;DHT22;67776;52.012;4.736;2024-01-30T12:42:10;9.04;91.05
78490;DHT22;67776;52.012;4.736;2024-01-30T12:44:35;8.97;91.84
78490;DHT22;67776;52.012;4.736;2024-01-30T12:47:03;8.92;91.95
78490;DHT22;67776;52.012;4.736;2024-01-30T12:49:28;8.92;92.44
78490;DHT22;67776;52.012;4.736;2024-01-30T12:51:54;8.67;94.21
78490;DHT22;67776;52.012;4.736;2024-01-30T12:54:19;8.70;94.70
78490;DHT22;67776;52.012;4.736;2024-01-30T12:56:45;8.60;95.15
78490;DHT22;67776;52.012;4.736;2024-01-30T12:59:10;8.49;95.62
78490;DHT22;67776;52.012;4.736;2024-01-30T13:01:35;8.45;96.17
78490;DHT22;67776;52.012;4.736;2024-01-30T13:04:01;8.45;96.26
78490;DHT22;67776;52.012;4.736;2024-01-30T13:06:26;8.47;96.35
78490;DHT22;67776;52.012;4.736;2024-01-30T13:08:52;8.38;96.76
78490;DHT22;67776;52.012;4.736;2024-01-30T13:11:17;8.35;97.33
78490;DHT22;67776;52.012;4.736;2024-01-30T13:13:43;8.33;97.41
78490;DHT22;67776;52.012;4.736;2024-01-30T13:16:08;8.25;97.47
78490;DHT22;67776;52.012;4.736;2024-01-30T13:18:34;8.38;96.52
78490;DHT22;67776;52.012;4.736;2024-01-30T13:20:59;8.38;96.07
78490;DHT22;67776;52.012;4.736;2024-01-30T13:23:25;8.52;95.69
78490;DHT22;67776;52.012;4.736;2024-01-30T13:25:50;8.45;96.24
78490;DHT22;67776;52.012;4.736;2024-01-30T13:28:16;8.40;96.19
78490;DHT22;67776;52.012;4.736;2024-01-30T13:30:41;8.46;95.82
78490;DHT22;67776;52.012;4.736;2024-01-30T13:33:06;8.50;95.52
78490;DHT22;67776;52.012;4.736;2024-01-30T13:35:34;8.43;96.01
78490;DHT22;67776;52.012;4.736;2024-01-30T13:37:59;8.45;96.10
78490;DHT22;67776;52.012;4.736;2024-01-30T13:40:25;8.50;95.92
78490;DHT22;67776;52.012;4.736;2024-01-30T13:42:50;8.59;95.39
78490;DHT22;67776;52.012;4.736;2024-01-30T13:45:16;8.49;96.29
78490;DHT22;67776;52.012;4.736;2024-01-30T13:47:41;8.45;97.00
78490;DHT22;67776;52.012;4.736;2024-01-30T13:50:07;8.50;97.21
78490;DHT22;67776;52.012;4.736;2024-01-30T13:52:33;8.43;98.06
78490;DHT22;67776;52.012;4.736;2024-01-30T13:54:58;8.43;98.01
78490;DHT22;67776;52.012;4.736;2024-01-30T13:57:23;8.30;98.92
78490;DHT22;67776;52.012;4.736;2024-01-30T13:59:49;8.28;98.84
78490;DHT22;67776;52.012;4.736;2024-01-30T14:02:14;8.35;99.04
78490;DHT22;67776;52.012;4.736;2024-01-30T14:04:40;8.35;99.13
78490;DHT22;67776;52.012;4.736;2024-01-30T14:07:05;8.32;99.04
78490;DHT22;67776;52.012;4.736;2024-01-30T14:09:31;8.30;98.88
78490;DHT22;67776;52.012;4.736;2024-01-30T14:11:57;8.22;99.02
78490;DHT22;67776;52.012;4.736;2024-01-30T14:14:23;8.19;99.30
78490;DHT22;67776;52.012;4.736;2024-01-30T14:16:49;8.18;99.42
78490;DHT22;67776;52.012;4.736;2024-01-30T14:19:14;8.15;99.13
78490;DHT22;67776;52.012;4.736;2024-01-30T14:21:40;8.12;99.11
78490;DHT22;67776;52.012;4.736;2024-01-30T14:24:05;8.16;98.73
78490;DHT22;67776;52.012;4.736;2024-01-30T14:26:30;8.15;98.73
78490;DHT22;67776;52.012;4.736;2024-01-30T14:28:56;8.09;99.11
78490;DHT22;67776;52.012;4.736;2024-01-30T14:31:21;8.13;99.14
78490;DHT22;67776;52.012;4.736;2024-01-30T14:33:49;7.98;99.33
78490;DHT22;67776;52.012;4.736;2024-01-30T14:36:14;8.01;99.28
78490;DHT22;67776;52.012;4.736;2024-01-30T14:38:40;8.05;99.11
78490;DHT22;67776;52.012;4.736;2024-01-30T14:41:05;8.05;99.14
78490;DHT22;67776;52.012;4.736;2024-01-30T14:43:31;8.08;98.78
78490;DHT22;67776;52.012;4.736;2024-01-30T14:45:56;8.06;98.92
78490;DHT22;67776;52.012;4.736;2024-01-30T14:48:22;7.95;99.22
78490;DHT22;67776;52.012;4.736;2024-01-30T14:50:47;7.92;99.49
78490;DHT22;67776;52.012;4.736;2024-01-30T14:53:13;7.91;99.43
78490;DHT22;67776;52.012;4.736;2024-01-30T14:55:38;7.97;99.36
78490;DHT22;67776;52.012;4.736;2024-01-30T14:58:04;7.98;99.23
78490;DHT22;67776;52.012;4.736;2024-01-30T15:00:29;8.02;98.94
78490;DHT22;67776;52.012;4.736;2024-01-30T15:02:54;7.99;99.05
78490;DHT22;67776;52.012;4.736;2024-01-30T15:05:20;8.02;99.14
78490;DHT22;67776;52.012;4.736;2024-01-30T15:07:45;7.97;99.24
78490;DHT22;67776;52.012;4.736;2024-01-30T15:10:10;7.92;99.55
78490;DHT22;67776;52.012;4.736;2024-01-30T15:12:37;7.91;99.72
78490;DHT22;67776;52.012;4.736;2024-01-30T15:15:03;7.92;99.71
78490;DHT22;67776;52.012;4.736;2024-01-30T15:17:28;7.90;99.71
78490;DHT22;67776;52.012;4.736;2024-01-30T15:19:54;7.92;99.58
78490;DHT22;67776;52.012;4.736;2024-01-30T15:22:19;7.94;99.40
78490;DHT22;67776;52.012;4.736;2024-01-30T15:24:44;7.90;99.54
78490;DHT22;67776;52.012;4.736;2024-01-30T15:27:10;7.95;99.58
78490;DHT22;67776;52.012;4.736;2024-01-30T15:29:35;7.99;99.36
78490;DHT22;67776;52.012;4.736;2024-01-30T15:32:00;7.92;99.47
78490;DHT22;67776;52.012;4.736;2024-01-30T15:34:26;7.84;99.69
78490;DHT22;67776;52.012;4.736;2024-01-30T15:36:51;7.91;99.44